Wilmington, North Carolina
Current Conditions -  °F | °C
As of 9:53 PM on Saturday 22 Nov 2014 (Local Time) from KILM Reporting Station
Clear Clear  
Wind Chill: 42°   Ceiling: Unl
Heat Index: 42°   Visibility: 8mi
Dew Point: 40°   Wind: 3mph
Humidity: 92%   Direction: 30°NNE
Pressure: 30.35"   Gusts: NA
Location:  34.24°N, 77.94°W
Report Text: KILM 230253Z 03003KT 8SM CLR 06/04 A3035 RMK AO2 SLP277 T00560044 56010
Loading
Personal Weather Stations






























Interactive Weather Map New forecast layout! Learn more

10-Day Weather Forecast

Advertisements
Track Severe Weather on mobile